sensor_id;sensor_type;location;lat;lon;timestamp;P1;durP1;ratioP1;P2;durP2;ratioP2
16660;SDS011;8444;52.012;5.048;2023-02-08T00:00:53;25.67;;;12.83;;
16660;SDS011;8444;52.012;5.048;2023-02-08T00:03:18;23.00;;;13.40;;
16660;SDS011;8444;52.012;5.048;2023-02-08T00:05:44;21.87;;;13.40;;
16660;SDS011;8444;52.012;5.048;2023-02-08T00:08:09;23.23;;;13.43;;
16660;SDS011;8444;52.012;5.048;2023-02-08T00:10:34;23.67;;;13.10;;
16660;SDS011;8444;52.012;5.048;2023-02-08T00:12:59;22.37;;;13.23;;
16660;SDS011;8444;52.012;5.048;2023-02-08T00:15:25;21.00;;;12.63;;
16660;SDS011;8444;52.012;5.048;2023-02-08T00:17:50;21.17;;;12.53;;
16660;SDS011;8444;52.012;5.048;2023-02-08T00:20:16;23.93;;;13.67;;
16660;SDS011;8444;52.012;5.048;2023-02-08T00:22:41;24.70;;;12.93;;
16660;SDS011;8444;52.012;5.048;2023-02-08T00:25:06;25.47;;;13.33;;
16660;SDS011;8444;52.012;5.048;2023-02-08T00:27:32;23.83;;;13.47;;
16660;SDS011;8444;52.012;5.048;2023-02-08T00:29:57;21.70;;;13.07;;
16660;SDS011;8444;52.012;5.048;2023-02-08T00:32:23;24.73;;;14.17;;
16660;SDS011;8444;52.012;5.048;2023-02-08T00:34:48;20.80;;;13.30;;
16660;SDS011;8444;52.012;5.048;2023-02-08T00:37:13;23.70;;;14.77;;
16660;SDS011;8444;52.012;5.048;2023-02-08T00:39:38;22.37;;;12.87;;
16660;SDS011;8444;52.012;5.048;2023-02-08T00:42:03;27.37;;;13.33;;
16660;SDS011;8444;52.012;5.048;2023-02-08T00:44:29;23.53;;;13.77;;
16660;SDS011;8444;52.012;5.048;2023-02-08T00:46:54;19.63;;;12.67;;
16660;SDS011;8444;52.012;5.048;2023-02-08T00:49:19;22.37;;;14.00;;
16660;SDS011;8444;52.012;5.048;2023-02-08T00:51:44;24.00;;;13.13;;
16660;SDS011;8444;52.012;5.048;2023-02-08T00:54:12;22.50;;;14.13;;
16660;SDS011;8444;52.012;5.048;2023-02-08T00:56:37;22.20;;;13.73;;
16660;SDS011;8444;52.012;5.048;2023-02-08T00:59:03;21.93;;;12.33;;
16660;SDS011;8444;52.012;5.048;2023-02-08T01:01:28;21.30;;;13.87;;
16660;SDS011;8444;52.012;5.048;2023-02-08T01:03:53;19.60;;;12.57;;
16660;SDS011;8444;52.012;5.048;2023-02-08T01:06:18;20.83;;;12.47;;
16660;SDS011;8444;52.012;5.048;2023-02-08T01:08:43;23.10;;;13.37;;
16660;SDS011;8444;52.012;5.048;2023-02-08T01:11:13;23.07;;;13.60;;
16660;SDS011;8444;52.012;5.048;2023-02-08T01:13:39;24.33;;;13.87;;
16660;SDS011;8444;52.012;5.048;2023-02-08T01:16:11;21.00;;;13.37;;
16660;SDS011;8444;52.012;5.048;2023-02-08T01:18:37;21.63;;;12.77;;
16660;SDS011;8444;52.012;5.048;2023-02-08T01:21:07;21.07;;;13.33;;
16660;SDS011;8444;52.012;5.048;2023-02-08T01:23:33;22.77;;;13.70;;
16660;SDS011;8444;52.012;5.048;2023-02-08T01:25:58;15.67;;;11.10;;
16660;SDS011;8444;52.012;5.048;2023-02-08T01:28:23;22.87;;;12.73;;
16660;SDS011;8444;52.012;5.048;2023-02-08T01:30:48;17.80;;;11.57;;
16660;SDS011;8444;52.012;5.048;2023-02-08T01:33:14;20.53;;;13.47;;
16660;SDS011;8444;52.012;5.048;2023-02-08T01:35:39;21.63;;;13.23;;
16660;SDS011;8444;52.012;5.048;2023-02-08T01:38:04;19.07;;;11.73;;
16660;SDS011;8444;52.012;5.048;2023-02-08T01:40:29;20.37;;;12.77;;
16660;SDS011;8444;52.012;5.048;2023-02-08T01:42:55;21.33;;;12.23;;
16660;SDS011;8444;52.012;5.048;2023-02-08T01:45:22;21.17;;;14.13;;
16660;SDS011;8444;52.012;5.048;2023-02-08T01:47:53;23.47;;;13.87;;
16660;SDS011;8444;52.012;5.048;2023-02-08T01:50:20;19.97;;;12.33;;
16660;SDS011;8444;52.012;5.048;2023-02-08T01:52:46;19.43;;;12.47;;
16660;SDS011;8444;52.012;5.048;2023-02-08T01:55:16;20.77;;;13.10;;
16660;SDS011;8444;52.012;5.048;2023-02-08T01:57:44;24.63;;;14.37;;
16660;SDS011;8444;52.012;5.048;2023-02-08T02:00:15;24.97;;;14.00;;
16660;SDS011;8444;52.012;5.048;2023-02-08T02:02:45;23.17;;;14.07;;
16660;SDS011;8444;52.012;5.048;2023-02-08T02:05:11;21.10;;;12.10;;
16660;SDS011;8444;52.012;5.048;2023-02-08T02:07:37;24.00;;;13.17;;
16660;SDS011;8444;52.012;5.048;2023-02-08T02:10:09;22.30;;;13.57;;
16660;SDS011;8444;52.012;5.048;2023-02-08T02:12:37;17.77;;;12.57;;
16660;SDS011;8444;52.012;5.048;2023-02-08T02:15:02;21.60;;;13.90;;
16660;SDS011;8444;52.012;5.048;2023-02-08T02:17:28;26.63;;;13.33;;
16660;SDS011;8444;52.012;5.048;2023-02-08T02:19:57;23.80;;;13.40;;
16660;SDS011;8444;52.012;5.048;2023-02-08T02:22:33;22.43;;;12.53;;
16660;SDS011;8444;52.012;5.048;2023-02-08T02:30:30;19.33;;;13.17;;
16660;SDS011;8444;52.012;5.048;2023-02-08T02:38:09;20.87;;;12.23;;
16660;SDS011;8444;52.012;5.048;2023-02-08T02:46:21;19.80;;;11.97;;
16660;SDS011;8444;52.012;5.048;2023-02-08T02:51:31;19.93;;;12.80;;
16660;SDS011;8444;52.012;5.048;2023-02-08T02:54:06;18.63;;;12.10;;
16660;SDS011;8444;52.012;5.048;2023-02-08T02:56:41;20.00;;;12.47;;
16660;SDS011;8444;52.012;5.048;2023-02-08T02:59:08;20.80;;;12.77;;
16660;SDS011;8444;52.012;5.048;2023-02-08T03:01:34;19.70;;;12.20;;
16660;SDS011;8444;52.012;5.048;2023-02-08T03:04:10;19.43;;;11.93;;
16660;SDS011;8444;52.012;5.048;2023-02-08T03:12:11;22.33;;;12.97;;
16660;SDS011;8444;52.012;5.048;2023-02-08T03:14:41;19.70;;;12.53;;
16660;SDS011;8444;52.012;5.048;2023-02-08T03:19:52;20.93;;;13.60;;
16660;SDS011;8444;52.012;5.048;2023-02-08T03:22:22;22.33;;;12.10;;
16660;SDS011;8444;52.012;5.048;2023-02-08T03:27:48;18.00;;;10.83;;
16660;SDS011;8444;52.012;5.048;2023-02-08T03:35:18;19.57;;;12.53;;
16660;SDS011;8444;52.012;5.048;2023-02-08T03:37:46;19.77;;;12.57;;
16660;SDS011;8444;52.012;5.048;2023-02-08T03:40:15;21.93;;;12.73;;
16660;SDS011;8444;52.012;5.048;2023-02-08T03:42:41;21.60;;;13.13;;
16660;SDS011;8444;52.012;5.048;2023-02-08T03:45:12;20.47;;;12.07;;
16660;SDS011;8444;52.012;5.048;2023-02-08T03:47:39;24.57;;;12.67;;
16660;SDS011;8444;52.012;5.048;2023-02-08T03:50:07;21.07;;;13.00;;
16660;SDS011;8444;52.012;5.048;2023-02-08T03:52:33;21.50;;;12.43;;
16660;SDS011;8444;52.012;5.048;2023-02-08T03:55:01;20.10;;;12.70;;
16660;SDS011;8444;52.012;5.048;2023-02-08T03:57:34;22.80;;;12.73;;
16660;SDS011;8444;52.012;5.048;2023-02-08T04:00:07;20.63;;;11.67;;
16660;SDS011;8444;52.012;5.048;2023-02-08T04:02:33;18.17;;;12.40;;
16660;SDS011;8444;52.012;5.048;2023-02-08T04:05:01;20.23;;;12.50;;
16660;SDS011;8444;52.012;5.048;2023-02-08T04:07:28;18.70;;;11.87;;
16660;SDS011;8444;52.012;5.048;2023-02-08T04:09:53;20.00;;;12.77;;
16660;SDS011;8444;52.012;5.048;2023-02-08T04:12:18;21.13;;;12.17;;
16660;SDS011;8444;52.012;5.048;2023-02-08T04:14:43;18.43;;;11.63;;
16660;SDS011;8444;52.012;5.048;2023-02-08T04:17:08;20.17;;;11.87;;
16660;SDS011;8444;52.012;5.048;2023-02-08T04:19:34;21.20;;;11.70;;
16660;SDS011;8444;52.012;5.048;2023-02-08T04:21:59;18.47;;;11.80;;
16660;SDS011;8444;52.012;5.048;2023-02-08T04:24:24;23.40;;;12.10;;
16660;SDS011;8444;52.012;5.048;2023-02-08T04:26:49;20.47;;;12.90;;
16660;SDS011;8444;52.012;5.048;2023-02-08T04:29:15;20.50;;;12.37;;
16660;SDS011;8444;52.012;5.048;2023-02-08T04:31:40;20.37;;;11.33;;
16660;SDS011;8444;52.012;5.048;2023-02-08T04:34:05;18.87;;;11.50;;
16660;SDS011;8444;52.012;5.048;2023-02-08T04:36:30;21.40;;;12.00;;
16660;SDS011;8444;52.012;5.048;2023-02-08T04:38:56;18.63;;;11.83;;
16660;SDS011;8444;52.012;5.048;2023-02-08T04:41:21;22.27;;;12.73;;
16660;SDS011;8444;52.012;5.048;2023-02-08T04:43:46;18.80;;;12.70;;
16660;SDS011;8444;52.012;5.048;2023-02-08T04:46:12;18.97;;;11.43;;
16660;SDS011;8444;52.012;5.048;2023-02-08T04:48:37;22.17;;;12.27;;
16660;SDS011;8444;52.012;5.048;2023-02-08T04:51:02;21.97;;;11.60;;
16660;SDS011;8444;52.012;5.048;2023-02-08T04:53:27;18.30;;;11.50;;
16660;SDS011;8444;52.012;5.048;2023-02-08T04:55:53;18.30;;;11.63;;
16660;SDS011;8444;52.012;5.048;2023-02-08T04:58:18;21.17;;;11.70;;
16660;SDS011;8444;52.012;5.048;2023-02-08T05:00:43;19.07;;;10.73;;
16660;SDS011;8444;52.012;5.048;2023-02-08T05:03:09;19.37;;;11.40;;
16660;SDS011;8444;52.012;5.048;2023-02-08T05:05:34;22.20;;;11.63;;
16660;SDS011;8444;52.012;5.048;2023-02-08T05:08:00;21.73;;;12.97;;
16660;SDS011;8444;52.012;5.048;2023-02-08T05:10:25;16.73;;;11.33;;
16660;SDS011;8444;52.012;5.048;2023-02-08T05:12:50;19.30;;;12.13;;
16660;SDS011;8444;52.012;5.048;2023-02-08T05:15:16;18.20;;;10.87;;
16660;SDS011;8444;52.012;5.048;2023-02-08T05:17:41;18.80;;;12.30;;
16660;SDS011;8444;52.012;5.048;2023-02-08T05:20:06;19.90;;;11.23;;
16660;SDS011;8444;52.012;5.048;2023-02-08T05:22:32;16.63;;;10.83;;
16660;SDS011;8444;52.012;5.048;2023-02-08T05:24:57;20.40;;;11.40;;
16660;SDS011;8444;52.012;5.048;2023-02-08T05:27:22;18.07;;;11.40;;
16660;SDS011;8444;52.012;5.048;2023-02-08T05:29:47;16.13;;;10.30;;
16660;SDS011;8444;52.012;5.048;2023-02-08T05:32:13;18.67;;;11.97;;
16660;SDS011;8444;52.012;5.048;2023-02-08T05:34:38;19.20;;;11.80;;
16660;SDS011;8444;52.012;5.048;2023-02-08T05:37:03;21.77;;;10.83;;
16660;SDS011;8444;52.012;5.048;2023-02-08T05:39:29;19.70;;;11.47;;
16660;SDS011;8444;52.012;5.048;2023-02-08T05:41:54;18.53;;;11.57;;
16660;SDS011;8444;52.012;5.048;2023-02-08T05:44:19;21.73;;;11.30;;
16660;SDS011;8444;52.012;5.048;2023-02-08T05:46:45;22.17;;;12.13;;
16660;SDS011;8444;52.012;5.048;2023-02-08T05:49:10;19.70;;;11.13;;
16660;SDS011;8444;52.012;5.048;2023-02-08T05:51:35;19.90;;;12.13;;
16660;SDS011;8444;52.012;5.048;2023-02-08T05:54:00;23.77;;;12.33;;
16660;SDS011;8444;52.012;5.048;2023-02-08T05:56:26;20.33;;;12.17;;
16660;SDS011;8444;52.012;5.048;2023-02-08T05:58:52;25.17;;;11.93;;
16660;SDS011;8444;52.012;5.048;2023-02-08T06:01:17;21.40;;;12.00;;
16660;SDS011;8444;52.012;5.048;2023-02-08T06:03:43;21.50;;;11.20;;
16660;SDS011;8444;52.012;5.048;2023-02-08T06:06:08;16.13;;;10.83;;
16660;SDS011;8444;52.012;5.048;2023-02-08T06:08:35;20.90;;;12.33;;
16660;SDS011;8444;52.012;5.048;2023-02-08T06:11:01;22.30;;;12.10;;
16660;SDS011;8444;52.012;5.048;2023-02-08T06:13:26;22.30;;;13.10;;
16660;SDS011;8444;52.012;5.048;2023-02-08T06:15:53;18.33;;;11.47;;
16660;SDS011;8444;52.012;5.048;2023-02-08T06:18:18;21.33;;;11.60;;
16660;SDS011;8444;52.012;5.048;2023-02-08T06:20:43;18.47;;;11.33;;
16660;SDS011;8444;52.012;5.048;2023-02-08T06:23:08;19.47;;;11.57;;
16660;SDS011;8444;52.012;5.048;2023-02-08T06:25:34;20.10;;;11.23;;
16660;SDS011;8444;52.012;5.048;2023-02-08T06:27:59;20.93;;;11.30;;
16660;SDS011;8444;52.012;5.048;2023-02-08T06:30:24;21.80;;;11.37;;
16660;SDS011;8444;52.012;5.048;2023-02-08T06:32:49;17.97;;;12.23;;
16660;SDS011;8444;52.012;5.048;2023-02-08T06:35:14;22.27;;;10.93;;
16660;SDS011;8444;52.012;5.048;2023-02-08T06:37:40;21.20;;;12.23;;
16660;SDS011;8444;52.012;5.048;2023-02-08T06:40:05;18.40;;;11.23;;
16660;SDS011;8444;52.012;5.048;2023-02-08T06:42:30;18.60;;;11.27;;
16660;SDS011;8444;52.012;5.048;2023-02-08T06:44:56;23.07;;;11.30;;
16660;SDS011;8444;52.012;5.048;2023-02-08T06:47:22;23.40;;;12.83;;
16660;SDS011;8444;52.012;5.048;2023-02-08T06:49:48;16.47;;;10.63;;
16660;SDS011;8444;52.012;5.048;2023-02-08T06:52:13;18.73;;;11.67;;
16660;SDS011;8444;52.012;5.048;2023-02-08T06:54:38;16.97;;;10.77;;
16660;SDS011;8444;52.012;5.048;2023-02-08T06:57:03;19.70;;;10.50;;
16660;SDS011;8444;52.012;5.048;2023-02-08T06:59:31;20.53;;;11.37;;
16660;SDS011;8444;52.012;5.048;2023-02-08T07:01:56;18.83;;;10.70;;
16660;SDS011;8444;52.012;5.048;2023-02-08T07:04:21;18.77;;;11.47;;
16660;SDS011;8444;52.012;5.048;2023-02-08T07:06:47;20.20;;;10.90;;
16660;SDS011;8444;52.012;5.048;2023-02-08T07:09:12;22.03;;;11.53;;
16660;SDS011;8444;52.012;5.048;2023-02-08T07:11:38;19.47;;;10.53;;
16660;SDS011;8444;52.012;5.048;2023-02-08T07:14:03;19.23;;;11.10;;
16660;SDS011;8444;52.012;5.048;2023-02-08T07:16:28;18.77;;;11.00;;
16660;SDS011;8444;52.012;5.048;2023-02-08T07:18:53;33.40;;;12.07;;
16660;SDS011;8444;52.012;5.048;2023-02-08T07:21:19;19.37;;;12.30;;
16660;SDS011;8444;52.012;5.048;2023-02-08T07:23:45;18.60;;;10.80;;
16660;SDS011;8444;52.012;5.048;2023-02-08T07:26:11;21.07;;;11.43;;
16660;SDS011;8444;52.012;5.048;2023-02-08T07:28:38;18.03;;;11.63;;
16660;SDS011;8444;52.012;5.048;2023-02-08T07:31:11;16.17;;;9.90;;
16660;SDS011;8444;52.012;5.048;2023-02-08T07:33:37;19.30;;;10.27;;
16660;SDS011;8444;52.012;5.048;2023-02-08T07:36:02;20.87;;;10.50;;
16660;SDS011;8444;52.012;5.048;2023-02-08T07:38:29;21.50;;;12.27;;
16660;SDS011;8444;52.012;5.048;2023-02-08T07:41:05;22.30;;;10.73;;
16660;SDS011;8444;52.012;5.048;2023-02-08T07:43:30;18.40;;;10.83;;
16660;SDS011;8444;52.012;5.048;2023-02-08T07:45:57;17.97;;;10.83;;
16660;SDS011;8444;52.012;5.048;2023-02-08T07:48:22;20.40;;;10.13;;
16660;SDS011;8444;52.012;5.048;2023-02-08T07:50:47;16.07;;;10.83;;
16660;SDS011;8444;52.012;5.048;2023-02-08T07:53:12;18.10;;;10.80;;
16660;SDS011;8444;52.012;5.048;2023-02-08T07:55:38;17.27;;;10.73;;
16660;SDS011;8444;52.012;5.048;2023-02-08T07:58:03;17.27;;;11.77;;
16660;SDS011;8444;52.012;5.048;2023-02-08T08:00:28;20.27;;;11.77;;
16660;SDS011;8444;52.012;5.048;2023-02-08T08:02:53;22.33;;;10.90;;
16660;SDS011;8444;52.012;5.048;2023-02-08T08:05:18;17.33;;;10.57;;
16660;SDS011;8444;52.012;5.048;2023-02-08T08:07:44;20.00;;;12.23;;
16660;SDS011;8444;52.012;5.048;2023-02-08T08:10:09;19.23;;;12.00;;
16660;SDS011;8444;52.012;5.048;2023-02-08T08:12:35;22.33;;;12.07;;
16660;SDS011;8444;52.012;5.048;2023-02-08T08:15:00;17.33;;;11.00;;
16660;SDS011;8444;52.012;5.048;2023-02-08T08:17:25;20.47;;;11.70;;
16660;SDS011;8444;52.012;5.048;2023-02-08T08:19:50;20.10;;;10.57;;
16660;SDS011;8444;52.012;5.048;2023-02-08T08:22:15;20.97;;;11.87;;
16660;SDS011;8444;52.012;5.048;2023-02-08T08:24:41;21.70;;;10.53;;
16660;SDS011;8444;52.012;5.048;2023-02-08T08:27:07;17.63;;;10.63;;
16660;SDS011;8444;52.012;5.048;2023-02-08T08:29:33;14.27;;;9.30;;
16660;SDS011;8444;52.012;5.048;2023-02-08T08:31:59;19.97;;;11.10;;
16660;SDS011;8444;52.012;5.048;2023-02-08T08:34:24;16.70;;;10.53;;
16660;SDS011;8444;52.012;5.048;2023-02-08T08:36:57;16.07;;;9.83;;
16660;SDS011;8444;52.012;5.048;2023-02-08T08:39:23;12.90;;;9.07;;
16660;SDS011;8444;52.012;5.048;2023-02-08T08:41:48;13.57;;;9.97;;
16660;SDS011;8444;52.012;5.048;2023-02-08T08:44:13;14.23;;;9.40;;
16660;SDS011;8444;52.012;5.048;2023-02-08T08:46:38;14.57;;;9.90;;
16660;SDS011;8444;52.012;5.048;2023-02-08T08:49:04;14.53;;;9.00;;
16660;SDS011;8444;52.012;5.048;2023-02-08T08:51:29;12.53;;;8.70;;
16660;SDS011;8444;52.012;5.048;2023-02-08T08:53:59;16.03;;;9.17;;
16660;SDS011;8444;52.012;5.048;2023-02-08T08:56:24;15.27;;;9.30;;
16660;SDS011;8444;52.012;5.048;2023-02-08T08:58:49;14.20;;;9.17;;
16660;SDS011;8444;52.012;5.048;2023-02-08T09:01:14;18.23;;;9.97;;
16660;SDS011;8444;52.012;5.048;2023-02-08T09:03:40;14.23;;;9.73;;
16660;SDS011;8444;52.012;5.048;2023-02-08T09:06:05;15.10;;;10.10;;
16660;SDS011;8444;52.012;5.048;2023-02-08T09:08:30;13.37;;;8.40;;
16660;SDS011;8444;52.012;5.048;2023-02-08T09:10:55;11.53;;;9.37;;
16660;SDS011;8444;52.012;5.048;2023-02-08T09:13:20;11.93;;;8.93;;
16660;SDS011;8444;52.012;5.048;2023-02-08T09:15:46;12.57;;;9.03;;
16660;SDS011;8444;52.012;5.048;2023-02-08T09:18:12;13.43;;;8.57;;
16660;SDS011;8444;52.012;5.048;2023-02-08T09:20:38;12.13;;;8.40;;
16660;SDS011;8444;52.012;5.048;2023-02-08T09:23:04;12.37;;;8.50;;
16660;SDS011;8444;52.012;5.048;2023-02-08T09:25:29;14.63;;;8.67;;
16660;SDS011;8444;52.012;5.048;2023-02-08T09:27:54;13.63;;;9.67;;
16660;SDS011;8444;52.012;5.048;2023-02-08T09:30:20;11.63;;;8.77;;
16660;SDS011;8444;52.012;5.048;2023-02-08T09:32:45;17.73;;;9.27;;
16660;SDS011;8444;52.012;5.048;2023-02-08T09:35:10;13.20;;;8.93;;
16660;SDS011;8444;52.012;5.048;2023-02-08T09:37:37;14.80;;;10.43;;
16660;SDS011;8444;52.012;5.048;2023-02-08T09:40:02;13.77;;;9.53;;
16660;SDS011;8444;52.012;5.048;2023-02-08T09:42:29;14.47;;;9.93;;
16660;SDS011;8444;52.012;5.048;2023-02-08T09:52:40;15.50;;;9.00;;
16660;SDS011;8444;52.012;5.048;2023-02-08T09:55:14;13.33;;;8.63;;
16660;SDS011;8444;52.012;5.048;2023-02-08T09:57:41;10.43;;;7.77;;
16660;SDS011;8444;52.012;5.048;2023-02-08T10:00:15;11.23;;;8.67;;
16660;SDS011;8444;52.012;5.048;2023-02-08T10:02:42;17.37;;;9.77;;
16660;SDS011;8444;52.012;5.048;2023-02-08T10:05:11;15.17;;;9.10;;
16660;SDS011;8444;52.012;5.048;2023-02-08T10:07:38;11.43;;;8.17;;
16660;SDS011;8444;52.012;5.048;2023-02-08T10:10:04;10.90;;;8.03;;
16660;SDS011;8444;52.012;5.048;2023-02-08T10:12:42;13.17;;;8.60;;
16660;SDS011;8444;52.012;5.048;2023-02-08T10:15:27;12.23;;;8.23;;
16660;SDS011;8444;52.012;5.048;2023-02-08T10:25:59;13.87;;;8.43;;
16660;SDS011;8444;52.012;5.048;2023-02-08T10:31:10;11.73;;;8.60;;
16660;SDS011;8444;52.012;5.048;2023-02-08T10:33:54;13.80;;;9.17;;
16660;SDS011;8444;52.012;5.048;2023-02-08T10:36:23;10.87;;;7.67;;
16660;SDS011;8444;52.012;5.048;2023-02-08T10:38:50;12.23;;;9.10;;
16660;SDS011;8444;52.012;5.048;2023-02-08T10:41:18;12.83;;;9.43;;
16660;SDS011;8444;52.012;5.048;2023-02-08T10:43:45;13.37;;;8.87;;
16660;SDS011;8444;52.012;5.048;2023-02-08T10:49:17;14.10;;;9.87;;
16660;SDS011;8444;52.012;5.048;2023-02-08T10:51:46;14.37;;;9.03;;
16660;SDS011;8444;52.012;5.048;2023-02-08T10:54:12;11.77;;;8.33;;
16660;SDS011;8444;52.012;5.048;2023-02-08T10:56:50;11.97;;;7.80;;
16660;SDS011;8444;52.012;5.048;2023-02-08T10:59:20;10.27;;;7.87;;
16660;SDS011;8444;52.012;5.048;2023-02-08T11:01:47;11.27;;;7.50;;
16660;SDS011;8444;52.012;5.048;2023-02-08T11:04:13;11.60;;;7.30;;
16660;SDS011;8444;52.012;5.048;2023-02-08T11:06:39;10.73;;;7.63;;
16660;SDS011;8444;52.012;5.048;2023-02-08T11:09:05;13.13;;;8.83;;
16660;SDS011;8444;52.012;5.048;2023-02-08T11:11:34;11.27;;;7.40;;
16660;SDS011;8444;52.012;5.048;2023-02-08T11:14:08;9.97;;;7.57;;
16660;SDS011;8444;52.012;5.048;2023-02-08T11:16:34;10.83;;;7.90;;
16660;SDS011;8444;52.012;5.048;2023-02-08T11:19:00;10.50;;;7.93;;
16660;SDS011;8444;52.012;5.048;2023-02-08T11:23:57;11.20;;;8.30;;
16660;SDS011;8444;52.012;5.048;2023-02-08T11:26:23;12.40;;;8.37;;
16660;SDS011;8444;52.012;5.048;2023-02-08T11:31:33;11.03;;;8.77;;
16660;SDS011;8444;52.012;5.048;2023-02-08T11:34:03;12.90;;;7.67;;
16660;SDS011;8444;52.012;5.048;2023-02-08T11:36:30;9.23;;;8.00;;
16660;SDS011;8444;52.012;5.048;2023-02-08T11:38:55;10.23;;;7.77;;
16660;SDS011;8444;52.012;5.048;2023-02-08T11:41:21;11.37;;;8.37;;
16660;SDS011;8444;52.012;5.048;2023-02-08T11:43:58;10.27;;;8.07;;
16660;SDS011;8444;52.012;5.048;2023-02-08T11:46:25;9.97;;;7.37;;
16660;SDS011;8444;52.012;5.048;2023-02-08T11:48:52;10.90;;;8.00;;
16660;SDS011;8444;52.012;5.048;2023-02-08T11:53:51;11.00;;;8.07;;
16660;SDS011;8444;52.012;5.048;2023-02-08T11:56:21;13.23;;;9.37;;
16660;SDS011;8444;52.012;5.048;2023-02-08T12:01:21;10.37;;;8.17;;
16660;SDS011;8444;52.012;5.048;2023-02-08T12:03:49;12.27;;;9.37;;
16660;SDS011;8444;52.012;5.048;2023-02-08T12:11:42;11.40;;;8.57;;
16660;SDS011;8444;52.012;5.048;2023-02-08T12:17:02;12.43;;;8.60;;
16660;SDS011;8444;52.012;5.048;2023-02-08T12:22:16;11.93;;;8.20;;
16660;SDS011;8444;52.012;5.048;2023-02-08T12:29:55;11.47;;;9.07;;
16660;SDS011;8444;52.012;5.048;2023-02-08T12:37:59;13.57;;;9.43;;
16660;SDS011;8444;52.012;5.048;2023-02-08T12:40:53;11.80;;;8.67;;
16660;SDS011;8444;52.012;5.048;2023-02-08T12:48:24;9.63;;;8.17;;
16660;SDS011;8444;52.012;5.048;2023-02-08T12:51:01;12.07;;;8.97;;
16660;SDS011;8444;52.012;5.048;2023-02-08T12:53:37;11.40;;;8.83;;
16660;SDS011;8444;52.012;5.048;2023-02-08T12:56:09;12.40;;;8.77;;
16660;SDS011;8444;52.012;5.048;2023-02-08T12:58:42;12.77;;;9.03;;
16660;SDS011;8444;52.012;5.048;2023-02-08T13:01:09;10.47;;;8.77;;
16660;SDS011;8444;52.012;5.048;2023-02-08T13:06:04;9.37;;;8.13;;
16660;SDS011;8444;52.012;5.048;2023-02-08T13:11:15;8.43;;;7.27;;
16660;SDS011;8444;52.012;5.048;2023-02-08T13:13:42;12.37;;;8.47;;
16660;SDS011;8444;52.012;5.048;2023-02-08T13:16:19;10.23;;;8.73;;
16660;SDS011;8444;52.012;5.048;2023-02-08T13:18:53;11.70;;;8.30;;
16660;SDS011;8444;52.012;5.048;2023-02-08T13:21:21;11.27;;;9.27;;
16660;SDS011;8444;52.012;5.048;2023-02-08T13:23:48;13.27;;;8.10;;
16660;SDS011;8444;52.012;5.048;2023-02-08T13:26:14;12.37;;;8.37;;
16660;SDS011;8444;52.012;5.048;2023-02-08T13:28:44;10.38;;;7.97;;
16660;SDS011;8444;52.012;5.048;2023-02-08T13:31:11;9.57;;;7.60;;
16660;SDS011;8444;52.012;5.048;2023-02-08T13:33:48;11.80;;;8.73;;
16660;SDS011;8444;52.012;5.048;2023-02-08T13:36:33;9.50;;;7.57;;
16660;SDS011;8444;52.012;5.048;2023-02-08T13:39:00;11.38;;;8.43;;
16660;SDS011;8444;52.012;5.048;2023-02-08T13:41:26;9.38;;;7.97;;
16660;SDS011;8444;52.012;5.048;2023-02-08T13:46:18;11.40;;;8.48;;
16660;SDS011;8444;52.012;5.048;2023-02-08T13:48:45;8.80;;;7.30;;
16660;SDS011;8444;52.012;5.048;2023-02-08T14:04:34;9.47;;;6.73;;
16660;SDS011;8444;52.012;5.048;2023-02-08T14:07:02;11.97;;;8.27;;
16660;SDS011;8444;52.012;5.048;2023-02-08T14:12:22;10.25;;;7.32;;
16660;SDS011;8444;52.012;5.048;2023-02-08T14:17:33;8.37;;;6.97;;
16660;SDS011;8444;52.012;5.048;2023-02-08T14:20:05;9.47;;;6.87;;
16660;SDS011;8444;52.012;5.048;2023-02-08T14:22:38;10.17;;;7.13;;
16660;SDS011;8444;52.012;5.048;2023-02-08T14:25:15;7.30;;;6.60;;
16660;SDS011;8444;52.012;5.048;2023-02-08T14:27:42;7.63;;;6.80;;
16660;SDS011;8444;52.012;5.048;2023-02-08T14:32:42;9.77;;;7.13;;
16660;SDS011;8444;52.012;5.048;2023-02-08T14:37:40;9.90;;;6.53;;
16660;SDS011;8444;52.012;5.048;2023-02-08T14:45:50;9.13;;;6.93;;
16660;SDS011;8444;52.012;5.048;2023-02-08T14:50:37;8.00;;;6.90;;
16660;SDS011;8444;52.012;5.048;2023-02-08T14:53:04;9.17;;;6.50;;
16660;SDS011;8444;52.012;5.048;2023-02-08T14:55:35;8.93;;;6.97;;
16660;SDS011;8444;52.012;5.048;2023-02-08T14:58:01;10.70;;;6.80;;
16660;SDS011;8444;52.012;5.048;2023-02-08T15:00:31;8.10;;;6.27;;
16660;SDS011;8444;52.012;5.048;2023-02-08T15:02:57;9.00;;;6.43;;
16660;SDS011;8444;52.012;5.048;2023-02-08T15:05:26;8.17;;;6.40;;
16660;SDS011;8444;52.012;5.048;2023-02-08T15:07:55;8.93;;;6.57;;
16660;SDS011;8444;52.012;5.048;2023-02-08T15:10:21;8.40;;;6.53;;
16660;SDS011;8444;52.012;5.048;2023-02-08T15:12:53;8.97;;;6.60;;
16660;SDS011;8444;52.012;5.048;2023-02-08T15:15:22;7.40;;;6.43;;
16660;SDS011;8444;52.012;5.048;2023-02-08T15:17:48;9.97;;;6.87;;
16660;SDS011;8444;52.012;5.048;2023-02-08T15:20:24;9.50;;;6.23;;
16660;SDS011;8444;52.012;5.048;2023-02-08T15:23:00;10.53;;;6.67;;
16660;SDS011;8444;52.012;5.048;2023-02-08T15:25:27;9.63;;;6.40;;
16660;SDS011;8444;52.012;5.048;2023-02-08T15:28:15;8.00;;;6.57;;
16660;SDS011;8444;52.012;5.048;2023-02-08T15:30:41;9.90;;;7.17;;
16660;SDS011;8444;52.012;5.048;2023-02-08T15:33:07;16.23;;;9.93;;
16660;SDS011;8444;52.012;5.048;2023-02-08T15:35:33;9.63;;;7.13;;
16660;SDS011;8444;52.012;5.048;2023-02-08T15:37:59;10.63;;;7.30;;
16660;SDS011;8444;52.012;5.048;2023-02-08T15:40:26;10.23;;;7.87;;
16660;SDS011;8444;52.012;5.048;2023-02-08T15:42:52;8.30;;;7.07;;
16660;SDS011;8444;52.012;5.048;2023-02-08T15:45:25;11.90;;;7.87;;
16660;SDS011;8444;52.012;5.048;2023-02-08T15:47:50;10.40;;;7.60;;
16660;SDS011;8444;52.012;5.048;2023-02-08T15:50:18;9.80;;;7.30;;
16660;SDS011;8444;52.012;5.048;2023-02-08T15:52:43;11.30;;;8.30;;
16660;SDS011;8444;52.012;5.048;2023-02-08T15:55:15;11.30;;;8.27;;
16660;SDS011;8444;52.012;5.048;2023-02-08T16:00:20;10.00;;;7.33;;
16660;SDS011;8444;52.012;5.048;2023-02-08T16:02:57;11.57;;;8.80;;
16660;SDS011;8444;52.012;5.048;2023-02-08T16:05:24;13.23;;;9.60;;
16660;SDS011;8444;52.012;5.048;2023-02-08T16:07:49;11.77;;;8.03;;
16660;SDS011;8444;52.012;5.048;2023-02-08T16:12:52;9.63;;;7.37;;
16660;SDS011;8444;52.012;5.048;2023-02-08T16:17:59;8.63;;;5.97;;
16660;SDS011;8444;52.012;5.048;2023-02-08T16:22:54;9.03;;;6.57;;
16660;SDS011;8444;52.012;5.048;2023-02-08T16:26:07;6.77;;;5.67;;
16660;SDS011;8444;52.012;5.048;2023-02-08T16:28:27;8.30;;;5.43;;
16660;SDS011;8444;52.012;5.048;2023-02-08T16:30:53;7.27;;;4.90;;
16660;SDS011;8444;52.012;5.048;2023-02-08T16:33:19;7.23;;;5.17;;
16660;SDS011;8444;52.012;5.048;2023-02-08T16:35:45;9.07;;;5.90;;
16660;SDS011;8444;52.012;5.048;2023-02-08T16:38:11;7.13;;;4.60;;
16660;SDS011;8444;52.012;5.048;2023-02-08T16:40:51;7.63;;;5.10;;
16660;SDS011;8444;52.012;5.048;2023-02-08T16:45:42;7.10;;;5.07;;
16660;SDS011;8444;52.012;5.048;2023-02-08T16:48:32;7.20;;;5.27;;
16660;SDS011;8444;52.012;5.048;2023-02-08T16:51:00;7.23;;;5.20;;
16660;SDS011;8444;52.012;5.048;2023-02-08T16:53:26;6.10;;;4.37;;
16660;SDS011;8444;52.012;5.048;2023-02-08T16:55:53;8.70;;;5.23;;
16660;SDS011;8444;52.012;5.048;2023-02-08T16:58:18;6.47;;;4.40;;
16660;SDS011;8444;52.012;5.048;2023-02-08T17:00:43;6.00;;;4.63;;
16660;SDS011;8444;52.012;5.048;2023-02-08T17:03:09;7.87;;;4.40;;
16660;SDS011;8444;52.012;5.048;2023-02-08T17:05:35;6.63;;;4.77;;
16660;SDS011;8444;52.012;5.048;2023-02-08T17:08:01;10.03;;;4.73;;
16660;SDS011;8444;52.012;5.048;2023-02-08T17:10:28;7.20;;;4.90;;